METAR Data
IDs: Format: Raw Decoded Include TAF

Data at: 0927 UTC 07 Dec 2021

KPIE 070853Z AUTO 20004KT 1/4SM R18/3000V4000FT FG VV002 18/18 A3007 RMK AO2 SLP181 T01780178 56003
KPIE 070826Z AUTO 20003KT 1/4SM R18/2000V3500FT FG VV002 18/18 A3007 RMK AO2 T01780178
KPIE 070817Z AUTO 20003KT M1/4SM R18/2000V2200FT FG VV002 18/18 A3007 RMK AO2 T01780178
KPIE 070753Z AUTO 00000KT 1/4SM R18/4000VP6000FT FG VV002 18/18 A3007 RMK AO2 SLP180 T01780178
KPIE 070748Z AUTO 00000KT 1/4SM R18/5000VP6000FT FG VV002 18/18 A3007 RMK AO2
KPIE 070734Z AUTO 00000KT 1/2SM R18/4500VP6000FT FG VV002 18/18 A3006 RMK AO2 T01780178
KPIE 070653Z AUTO 00000KT 1/4SM R18/2800V4500FT FG VV002 18/18 A3007 RMK AO2 SLP183 T01830183
KPIE 070627Z AUTO 00000KT 1/4SM R18/2400V3000FT FG VV002 18/18 A3007 RMK AO2 T01830183
KPIE 070611Z AUTO 00000KT M1/4SM R18/2400V2800FT FG VV002 18/18 A3007 RMK AO2 T01830183
KPIE 070553Z AUTO 00000KT 1/4SM R18/2800V3500FT FG VV002 18/18 A3007 RMK AO2 SLP182 T01830183 10200 20178 58016
KPIE 070453Z AUTO 18003KT 1/4SM R18/2800V3500FT FG VV001 18/18 A3010 RMK AO2 SLP191 T01830183 402610161 TSNO
KPIE 070353Z 00000KT 1/4SM R18/2800FT FG VV002 18/18 A3012 RMK AO2 SLP197 T01830183
KPIE 070253Z 31003KT 1/4SM R18/3500VP6000FT FG VV002 19/18 A3012 RMK AO2 SLP198 T01890183 51008
KPIE 070235Z 00000KT 1/2SM R18/5000VP6000FT FG VV002 18/18 A3011 RMK AO2 T01830178
KPIE 070225Z 00000KT 1 1/2SM R18/6000VP6000FT BR BKN003 18/18 A3011 RMK AO2 T01830183
KPIE 070153Z 25003KT 6SM BR OVC002 18/18 A3011 RMK AO2 SLP196 T01830183
KPIE 070146Z 26003KT 3SM BR OVC002 19/18 A3011 RMK AO2 T01890183
KPIE 070136Z 26004KT 1 3/4SM BR BKN003 19/19 A3011 RMK AO2 T01940189
KPIE 070134Z 26004KT 3SM BR BKN003 19/19 A3011 RMK AO2 T01940189
KPIE 070125Z 26004KT 10SM SCT003 19/18 A3011 RMK AO2 T01890183
KPIE 070053Z 25003KT 9SM CLR 19/19 A3011 RMK AO2 SLP194 T01940189
KPIE 062353Z 30003KT 10SM CLR 20/19 A3009 RMK AO2 SLP190 T02000189 10261 20200 53014
KPIE 062253Z 26003KT 10SM CLR 21/19 A3006 RMK AO2 SLP180 T02110189
KPIE 062153Z 27007KT 10SM CLR 23/18 A3006 RMK AO2 SLP178 T02330183
KPIE 062053Z 22008KT 10SM CLR 24/17 A3005 RMK AO2 SLP176 T02440172 56010
KPIE 061953Z AUTO 24007KT 10SM CLR 26/17 A3005 RMK AO2 SLP176 T02560172
KPIE 061853Z 24008KT 10SM CLR 26/18 A3007 RMK AO2 SLP183 T02610178
KPIE 061753Z 04006KT 10SM FEW031 21/19 A3008 RMK AO2 SLP186 T02110194 10222 20167 58023
KPIE 061653Z 04007KT 10SM R18/5500VP6000FT FEW025 22/19 A3011 RMK AO2 SLP195 T02170194
KPIE 061553Z 00000KT 10SM FEW003 22/20 A3014 RMK AO2 SLP206 T02220200
KPIE 061542Z 00000KT 10SM FEW003 21/20 A3014 RMK AO2 T02110200
KPIE 061453Z 14005KT 1/4SM R18/4000VP6000FT BR VV002 19/19 A3015 RMK AO2 SLP209 T01940189 51012
KPIE 061353Z 14004KT 1/4SM R18/3500V4500FT BR VV002 19/19 A3014 RMK AO2 SLP206 T01940194 $
KPIE 061300Z 00000KT 1/4SM R18/P6000FT BR OVC003 19/18 A3013 RMK AO2 CIG 002V006 T01890183 $
KPIE 061253Z 14004KT 1SM R18/P6000FT BR BKN003 18/18 A3013 RMK AO2 SLP201 T01830183 $
KPIE 061241Z 00000KT 4SM BR BKN004 17/17 A3012 RMK AO2 T01720172 $
KPIE 061217Z 00000KT 7SM BR FEW006 17/17 A3012 RMK AO2 T01720172 $
KPIE 061153Z 13004KT 7SM BR CLR 17/17 A3012 RMK AO2 SLP198 T01670167 10178 20161 53004 $
KPIE 061111Z 00000KT 7SM FEW009 17/17 A3010 RMK AO2 T01670167 $
KPIE 061102Z 00000KT 7SM CLR 16/16 A3010 RMK AO2 T01610161 $
KPIE 061053Z COR 00000KT 7SM BR CLR 17/17 A3010 RMK AO2 SLP193 T01720167 $
KPIE 061048Z AUTO 00000KT 2SM BR CLR 17/17 A3010 RMK AO2 $
KPIE 061036Z AUTO 00000KT 3/4SM R18/P6000FT BR CLR 17/17 A3010 RMK AO2 T01670167 $
KPIE 060953Z AUTO 00000KT 9SM CLR 17/17 A3010 RMK AO2 SLP193 T01720167 $
KPIE 060923Z AUTO 00000KT 3SM BR CLR 16/16 A3011 RMK AO2 T01610161 $
KPIE 060914Z AUTO 13003KT 2SM BR CLR 17/16 A3011 RMK AO2 VIS 3/4V5 T01670161 $
KPIE 060907Z AUTO 00000KT 1/2SM R18/P6000FT FG CLR 17/17 A3010 RMK AO2 T01670167 $
KPIE 060859Z AUTO 00000KT 1 3/4SM BR CLR 17/17 A3011 RMK AO2 VIS 1/2V5 T01670167 $
KPIE 060853Z AUTO 00000KT 4SM BR CLR 17/17 A3011 RMK AO2 SLP194 T01720167 55008 $
KPIE 060827Z AUTO 00000KT 3SM BR CLR 17/17 A3010 RMK AO2 T01670167 $
KPIE 060822Z AUTO 00000KT 1/2SM R18/P6000FT FG CLR 17/17 A3010 RMK AO2 T01670167 $
KPIE 060813Z AUTO 00000KT 1 1/2SM BR CLR 17/17 A3010 RMK AO2 T01670167 $
KPIE 060753Z AUTO 00000KT 8SM CLR 17/16 A3010 RMK AO2 SLP192 T01670161 $
KPIE 060653Z AUTO 00000KT 10SM CLR 17/16 A3012 RMK AO2 SLP198 T01670156 $
KPIE 060553Z AUTO 00000KT 10SM CLR 17/16 A3013 RMK AO2 SLP203 T01670156 10200 20161 58003
KPIE 060453Z AUTO 00000KT 10SM CLR 19/16 A3015 RMK AO2 SLP208 T01890161 402560167
KPIE 060353Z 05004KT 10SM FEW055 18/16 A3015 RMK AO2 SLP208 T01780161
KPIE 060253Z 08003KT 10SM FEW046 BKN055 18/17 A3014 RMK AO2 SLP206 T01830167 51011
KPIE 060153Z AUTO 03003KT 10SM SCT055 19/17 A3014 RMK AO2 SLP205 T01940167
KPIE 060053Z AUTO 03004KT 10SM SCT047 19/17 A3012 RMK AO2 SLP199 T01890167
KPIE 052353Z AUTO 35004KT 10SM FEW050 20/16 A3011 RMK AO2 SLP195 T02000161 10256 20200 53005
KPIE 052253Z 34004KT 10SM CLR 21/16 A3010 RMK AO2 SLP191 T02060161
KPIE 052153Z 31005KT 10SM CLR 22/16 A3009 RMK AO2 SLP190 T02220161